Time;durP1;ratioP1;P1;durP2;ratioP2;P2;SDS_P1;SDS_P2;PMS_P1;PMS_P2;Temp;Humidity;BMP_temperature;BMP_pressure;BME280_temperature;BME280_humidity;BME280_pressure;Samples;Min_cycle;Max_cycle;Signal;HPM_P1;HPM_P2
2023/08/20 00:01:28;;;;;;;6.70;6.00;;;;;;;25.66;80.52;100610.25;5104492;28;20778;-65
2023/08/20 00:03:54;;;;;;;7.17;6.00;;;;;;;25.65;80.55;100605.69;5072730;28;20238;-65
2023/08/20 00:06:19;;;;;;;7.40;6.40;;;;;;;25.65;80.23;100611.47;5091422;28;20174;-65
2023/08/20 00:08:46;;;;;;;7.00;6.10;;;;;;;25.65;79.99;100604.88;5093629;28;20182;-65
2023/08/20 00:11:12;;;;;;;6.23;5.63;;;;;;;25.65;80.51;100602.78;5091208;28;20193;-65
2023/08/20 00:13:37;;;;;;;6.63;5.80;;;;;;;25.65;80.08;100599.91;5093172;28;20468;-63
2023/08/20 00:16:03;;;;;;;7.47;6.33;;;;;;;25.64;80.37;100606.13;5090754;28;20451;-65
2023/08/20 00:18:29;;;;;;;6.77;5.80;;;;;;;25.65;79.97;100605.69;5091124;28;20299;-64
2023/08/20 00:20:55;;;;;;;8.57;6.87;;;;;;;25.64;80.53;100604.06;5108539;28;20423;-65
2023/08/20 00:23:20;;;;;;;7.23;6.00;;;;;;;25.65;79.95;100610.66;5104815;28;20189;-65
2023/08/20 00:25:46;;;;;;;7.10;6.30;;;;;;;25.63;80.16;100601.56;5104934;28;20185;-64
2023/08/20 00:28:12;;;;;;;7.13;6.20;;;;;;;25.64;80.03;100597.47;5108550;28;20196;-65
2023/08/20 00:30:37;;;;;;;7.80;5.63;;;;;;;25.64;79.88;100606.13;5091030;28;20186;-65
2023/08/20 00:33:03;;;;;;;8.70;5.77;;;;;;;25.63;80.44;100611.09;5089265;28;20799;-65
2023/08/20 00:35:28;;;;;;;9.63;5.80;;;;;;;25.63;79.98;100602.41;5090499;28;20170;-64
2023/08/20 00:37:54;;;;;;;6.70;5.80;;;;;;;25.63;79.84;100613.97;5090770;28;20167;-64
2023/08/20 00:40:19;;;;;;;8.07;5.80;;;;;;;25.63;79.82;100607.34;5090587;28;20166;-64
2023/08/20 00:42:44;;;;;;;6.60;5.90;;;;;;;25.64;79.97;100614.81;5093079;28;20217;-65
2023/08/20 00:45:10;;;;;;;7.80;6.40;;;;;;;25.63;80.45;100618.94;5090476;28;20548;-65
2023/08/20 00:47:35;;;;;;;6.80;5.87;;;;;;;25.63;80.00;100616.03;5092815;28;20179;-65
2023/08/20 00:50:05;;;;;;;5.63;5.03;;;;;;;25.63;80.38;100619.75;5072033;28;20195;-65
2023/08/20 00:52:31;;;;;;;7.20;5.90;;;;;;;25.64;79.76;100615.63;5074004;28;20212;-65
2023/08/20 00:54:56;;;;;;;6.50;5.80;;;;;;;25.63;79.81;100618.94;5100196;28;20826;-64
2023/08/20 00:57:21;;;;;;;6.90;6.00;;;;;;;25.63;80.36;100619.75;5093388;28;20186;-66
2023/08/20 00:59:49;;;;;;;6.80;6.10;;;;;;;25.62;79.84;100615.22;5108375;28;20235;-65
2023/08/20 01:02:15;;;;;;;6.37;5.40;;;;;;;25.62;80.19;100609.44;5100416;28;20258;-65
2023/08/20 01:04:40;;;;;;;7.90;5.60;;;;;;;25.63;80.00;100611.09;5092766;28;20447;-64
2023/08/20 01:07:12;;;;;;;5.93;5.33;;;;;;;25.62;79.84;100606.56;5072134;28;20424;-64
2023/08/20 01:09:56;;;;;;;6.50;5.90;;;;;;;25.63;79.62;100613.13;5073898;28;20707;-64
2023/08/20 01:12:21;;;;;;;6.73;5.47;;;;;;;25.61;80.01;100616.47;5107445;28;20462;-63
2023/08/20 01:14:46;;;;;;;7.43;6.03;;;;;;;25.61;79.66;100609.84;5108436;28;20895;-64
2023/08/20 01:17:12;;;;;;;8.20;6.27;;;;;;;25.61;79.86;100621.44;5097017;28;21338;-64
2023/08/20 01:19:38;;;;;;;6.87;6.17;;;;;;;25.61;80.24;100615.66;5085499;28;20606;-63
2023/08/20 01:22:25;;;;;;;6.40;5.63;;;;;;;25.62;79.70;100623.91;5107737;28;20165;-64
2023/08/20 01:25:05;;;;;;;7.23;5.53;;;;;;;25.61;80.14;100633.84;5103666;28;20188;-64
2023/08/20 01:28:02;;;;;;;7.77;5.53;;;;;;;25.61;79.92;100636.72;5088795;28;20420;-65
2023/08/20 01:30:27;;;;;;;6.50;5.00;;;;;;;25.61;79.64;100638.78;5078022;28;20435;-64
2023/08/20 01:32:53;;;;;;;6.47;5.77;;;;;;;25.60;80.02;100646.66;5088850;28;20534;-65
2023/08/20 01:35:19;;;;;;;6.43;5.60;;;;;;;25.61;79.51;100644.56;5089516;28;20181;-64
2023/08/20 01:37:44;;;;;;;6.47;5.33;;;;;;;25.61;79.57;100650.34;5091977;28;20555;-65
2023/08/20 01:40:10;;;;;;;5.97;5.37;;;;;;;25.60;79.64;100640.03;5089245;28;20163;-65
2023/08/20 01:42:38;;;;;;;7.17;5.27;;;;;;;25.60;79.78;100648.72;5089924;28;20602;-65
2023/08/20 01:45:05;;;;;;;6.70;5.50;;;;;;;25.60;79.74;100654.50;5091387;28;20615;-65
2023/08/20 01:47:31;;;;;;;6.33;5.20;;;;;;;25.59;79.99;100647.88;5094625;28;20435;-65
2023/08/20 01:49:57;;;;;;;6.97;6.27;;;;;;;25.60;79.46;100646.66;5109462;28;20440;-64
2023/08/20 01:52:22;;;;;;;9.63;5.60;;;;;;;25.59;79.50;100633.41;5107431;28;20772;-65
2023/08/20 01:54:48;;;;;;;6.17;5.40;;;;;;;25.59;79.58;100633.41;5098503;28;20208;-65
2023/08/20 01:57:14;;;;;;;9.50;6.00;;;;;;;25.60;79.14;100642.94;5091129;28;20181;-65
2023/08/20 01:59:39;;;;;;;6.23;5.63;;;;;;;25.59;79.85;100644.19;5098177;28;20435;-64
2023/08/20 02:02:06;;;;;;;6.20;5.60;;;;;;;25.60;79.30;100654.50;5109508;28;20177;-65
2023/08/20 02:04:32;;;;;;;6.10;5.50;;;;;;;25.59;79.72;100649.97;5106627;28;20174;-64
2023/08/20 02:06:58;;;;;;;6.13;5.23;;;;;;;25.59;79.43;100655.75;5107395;28;20945;-64
2023/08/20 02:09:24;;;;;;;5.90;5.30;;;;;;;25.58;79.77;100646.22;5100820;28;20439;-65
2023/08/20 02:11:50;;;;;;;6.17;5.57;;;;;;;25.58;79.17;100639.66;5108269;28;20201;-65
2023/08/20 02:14:15;;;;;;;5.93;5.37;;;;;;;25.58;79.22;100633.84;5098936;28;20484;-65
2023/08/20 02:16:41;;;;;;;6.10;5.20;;;;;;;25.57;79.66;100618.56;5086695;28;20535;-65
2023/08/20 02:19:07;;;;;;;10.83;5.43;;;;;;;25.57;79.61;100614.84;5086476;28;20222;-64
2023/08/20 02:21:32;;;;;;;6.13;5.53;;;;;;;25.57;79.56;100609.06;5068130;28;20751;-64
2023/08/20 02:23:57;;;;;;;6.80;5.37;;;;;;;25.56;79.05;100602.47;5088359;28;20197;-64
2023/08/20 02:26:23;;;;;;;6.03;4.80;;;;;;;25.57;79.57;100609.88;5086947;28;20197;-63
2023/08/20 02:28:48;;;;;;;7.43;6.30;;;;;;;25.56;79.04;100605.34;5087253;28;20170;-65
2023/08/20 02:31:14;;;;;;;6.63;5.33;;;;;;;25.57;79.61;100606.16;5090166;28;20178;-64
2023/08/20 02:33:39;;;;;;;6.83;5.27;;;;;;;25.56;79.35;100605.34;5101238;28;20665;-65
2023/08/20 02:36:05;;;;;;;6.27;5.50;;;;;;;25.56;79.40;100602.47;5108710;28;20515;-64
2023/08/20 02:38:30;;;;;;;6.83;5.23;;;;;;;25.57;79.15;100597.47;5081041;28;20560;-64
2023/08/20 02:40:56;;;;;;;6.20;5.37;;;;;;;25.57;78.89;100595.44;5088736;28;20554;-65
2023/08/20 02:43:21;;;;;;;5.33;4.83;;;;;;;25.56;78.90;100593.78;5088840;28;20315;-64
2023/08/20 02:45:47;;;;;;;6.97;5.80;;;;;;;25.56;78.99;100585.13;5088358;28;20173;-65
2023/08/20 02:48:13;;;;;;;8.93;6.80;;;;;;;25.56;78.91;100587.16;5093225;28;20177;-65
2023/08/20 02:50:39;;;;;;;8.27;6.03;;;;;;;25.56;79.07;100590.06;5108707;28;20266;-65
2023/08/20 02:53:04;;;;;;;5.73;5.00;;;;;;;25.56;78.83;100596.69;5102014;28;20459;-65
2023/08/20 02:55:31;;;;;;;6.60;5.87;;;;;;;25.55;78.79;100594.19;5101333;28;20939;-65
2023/08/20 02:57:56;;;;;;;6.07;4.83;;;;;;;25.55;79.41;100597.09;5108616;28;20165;-64
2023/08/20 03:00:22;;;;;;;6.10;5.50;;;;;;;25.55;78.85;100595.03;5098791;28;20443;-64
2023/08/20 03:02:47;;;;;;;6.63;5.93;;;;;;;25.54;79.36;100602.03;5092075;28;20178;-64
2023/08/20 03:05:14;;;;;;;6.10;5.50;;;;;;;25.54;78.86;100602.03;5087580;28;20154;-65
2023/08/20 03:07:39;;;;;;;7.33;5.80;;;;;;;25.54;78.84;100604.94;5089640;28;20210;-64
2023/08/20 03:10:06;;;;;;;9.70;5.70;;;;;;;25.53;79.30;100597.50;5095599;28;20484;-64
2023/08/20 03:12:31;;;;;;;7.80;5.37;;;;;;;25.53;78.88;100597.50;5099632;28;20201;-63
2023/08/20 03:14:57;;;;;;;6.87;5.70;;;;;;;25.53;78.90;100599.59;5096896;28;20419;-65
2023/08/20 03:17:22;;;;;;;5.63;5.03;;;;;;;25.53;79.18;100605.38;5089735;28;20193;-64
2023/08/20 03:19:58;;;;;;;8.07;5.60;;;;;;;25.52;79.17;100613.22;5091369;28;20218;-65
2023/08/20 03:22:24;;;;;;;8.30;5.90;;;;;;;25.53;78.67;100611.97;5104923;28;20178;-64
2023/08/20 03:24:49;;;;;;;6.47;5.50;;;;;;;25.52;79.07;100607.44;5108284;28;20495;-64
2023/08/20 03:27:15;;;;;;;6.83;5.47;;;;;;;25.52;78.64;100601.66;5112333;28;20239;-65
2023/08/20 03:29:41;;;;;;;8.80;6.03;;;;;;;25.52;78.79;100589.25;5112643;28;20577;-64
2023/08/20 03:32:06;;;;;;;6.50;5.80;;;;;;;25.51;78.60;100584.72;5091499;28;20463;-64
2023/08/20 03:34:31;;;;;;;9.13;5.73;;;;;;;25.52;78.51;100589.25;5112329;28;20166;-63
2023/08/20 03:36:57;;;;;;;5.93;5.27;;;;;;;25.52;78.62;100589.25;5105783;27;20186;-65
2023/08/20 03:39:22;;;;;;;6.07;5.40;;;;;;;25.51;78.43;100594.22;5112517;28;20173;-64
2023/08/20 03:41:50;;;;;;;6.93;5.30;;;;;;;25.52;78.34;100595.03;5112393;28;20162;-65
2023/08/20 03:44:15;;;;;;;10.77;6.10;;;;;;;25.52;78.64;100598.75;5096381;28;20190;-65
2023/08/20 03:46:40;;;;;;;6.60;5.73;;;;;;;25.51;78.34;100597.13;5091780;28;20446;-64
2023/08/20 03:49:06;;;;;;;7.47;5.50;;;;;;;25.52;78.39;100603.72;5093911;28;20244;-64
2023/08/20 03:51:31;;;;;;;6.87;5.43;;;;;;;25.51;78.41;100604.97;5091614;28;20166;-65
2023/08/20 03:53:57;;;;;;;8.60;6.03;;;;;;;25.51;78.38;100610.75;5095405;28;20170;-64
2023/08/20 03:56:22;;;;;;;7.27;6.17;;;;;;;25.51;78.22;100614.47;5086118;28;20186;-63
2023/08/20 03:58:48;;;;;;;6.90;5.70;;;;;;;25.51;78.23;100626.03;5107058;28;20182;-65
2023/08/20 04:01:13;;;;;;;6.80;6.10;;;;;;;25.51;78.31;100616.53;5105110;28;20178;-64
2023/08/20 04:03:38;;;;;;;7.37;5.70;;;;;;;25.51;78.66;100622.31;5108743;28;20158;-64
2023/08/20 04:06:04;;;;;;;8.10;5.73;;;;;;;25.50;78.59;100617.78;5108754;28;20688;-65
2023/08/20 04:08:29;;;;;;;6.60;5.43;;;;;;;25.51;78.59;100622.31;5108586;28;20566;-64
2023/08/20 04:10:55;;;;;;;7.70;5.87;;;;;;;25.50;78.49;100627.28;5087663;28;20185;-65
2023/08/20 04:13:20;;;;;;;7.50;5.47;;;;;;;25.49;78.47;100625.63;5108505;28;20201;-64
2023/08/20 04:15:46;;;;;;;7.80;6.40;;;;;;;25.51;78.39;100630.97;5098708;28;20182;-65
2023/08/20 04:18:11;;;;;;;6.30;5.67;;;;;;;25.50;78.30;100627.28;5072718;28;20178;-65
2023/08/20 04:20:37;;;;;;;7.23;5.90;;;;;;;25.49;78.16;100622.72;5091058;28;20234;-64
2023/08/20 04:23:02;;;;;;;7.57;6.30;;;;;;;25.49;78.68;100631.41;5103750;28;20184;-65
2023/08/20 04:25:28;;;;;;;5.90;5.30;;;;;;;25.50;78.28;100629.34;5094934;28;20210;-65
2023/08/20 04:27:53;;;;;;;7.60;6.03;;;;;;;25.49;78.43;100631.41;5090974;28;20228;-64
2023/08/20 04:30:19;;;;;;;6.60;5.50;;;;;;;25.49;78.17;100633.47;5090699;28;20182;-64
2023/08/20 04:32:45;;;;;;;6.80;6.17;;;;;;;25.49;78.75;100631.41;5090087;28;20210;-64
2023/08/20 04:35:10;;;;;;;6.60;5.90;;;;;;;25.49;78.69;100636.38;5106145;28;20855;-65
2023/08/20 04:37:36;;;;;;;7.03;5.40;;;;;;;25.50;78.52;100635.13;5090149;28;20219;-65
2023/08/20 04:40:04;;;;;;;7.73;6.40;;;;;;;25.49;78.84;100642.97;5096542;28;20243;-65
2023/08/20 04:42:29;;;;;;;7.47;5.90;;;;;;;25.48;78.72;100638.44;5090422;28;20618;-64
2023/08/20 04:44:55;;;;;;;6.33;5.73;;;;;;;25.48;78.71;100635.53;5095122;28;20438;-65
2023/08/20 04:47:20;;;;;;;7.73;5.90;;;;;;;25.50;78.54;100643.81;5103877;27;20587;-64
2023/08/20 04:49:46;;;;;;;8.47;5.63;;;;;;;25.49;78.75;100648.75;5110847;28;20321;-65
2023/08/20 04:52:11;;;;;;;7.67;6.10;;;;;;;25.49;78.25;100647.94;5110280;28;20177;-64
2023/08/20 04:54:37;;;;;;;7.70;6.47;;;;;;;25.48;78.29;100650.00;5085616;28;20251;-64
2023/08/20 04:57:02;;;;;;;8.10;6.30;;;;;;;25.48;78.27;100650.00;5108110;28;20227;-65
2023/08/20 04:59:28;;;;;;;6.17;5.57;;;;;;;25.48;78.79;100641.31;5109528;28;20182;-65
2023/08/20 05:01:54;;;;;;;6.50;5.80;;;;;;;25.47;78.74;100651.25;5105788;28;20255;-65
2023/08/20 05:04:19;;;;;;;8.60;6.50;;;;;;;25.48;78.11;100652.88;5101856;28;20430;-63
2023/08/20 05:06:45;;;;;;;7.30;6.60;;;;;;;25.47;78.29;100651.25;5102827;28;20182;-64
2023/08/20 05:09:10;;;;;;;7.00;5.70;;;;;;;25.48;78.69;100652.88;5109030;28;20161;-64
2023/08/20 05:11:36;;;;;;;8.37;5.93;;;;;;;25.48;78.46;100655.78;5101585;28;20163;-64
2023/08/20 05:14:01;;;;;;;6.90;6.00;;;;;;;25.48;78.79;100646.31;5102110;28;20179;-65
2023/08/20 05:16:27;;;;;;;9.00;6.60;;;;;;;25.48;78.54;100652.88;5091778;28;20202;-65
2023/08/20 05:18:52;;;;;;;6.90;6.20;;;;;;;25.48;78.54;100657.88;5089141;28;20229;-65
2023/08/20 05:21:18;;;;;;;6.20;5.60;;;;;;;25.47;78.79;100664.88;5095677;28;20205;-63
2023/08/20 05:23:43;;;;;;;7.03;5.60;;;;;;;25.47;78.49;100664.88;5089676;28;20174;-65
2023/08/20 05:26:09;;;;;;;7.07;5.90;;;;;;;25.47;78.77;100659.91;5108178;28;20989;-64
2023/08/20 05:28:35;;;;;;;6.70;5.77;;;;;;;25.47;78.88;100664.88;5109191;28;20170;-64
2023/08/20 05:31:00;;;;;;;6.70;5.50;;;;;;;25.47;78.41;100673.53;5106606;28;20439;-65
2023/08/20 05:33:26;;;;;;;7.00;6.30;;;;;;;25.47;78.31;100665.69;5109015;28;20202;-64
2023/08/20 05:35:51;;;;;;;7.23;5.97;;;;;;;25.46;78.21;100660.34;5094868;28;20193;-64
2023/08/20 05:38:17;;;;;;;7.50;5.93;;;;;;;25.47;78.33;100670.66;5054174;28;20181;-64
2023/08/20 05:40:42;;;;;;;9.00;6.20;;;;;;;25.47;78.49;100677.28;5091978;28;20193;-65
2023/08/20 05:43:08;;;;;;;7.27;6.53;;;;;;;25.46;78.31;100681.41;5071389;28;20178;-65
2023/08/20 05:45:34;;;;;;;7.43;6.37;;;;;;;25.46;78.27;100672.72;5089576;28;20162;-65
2023/08/20 05:47:59;;;;;;;8.10;6.10;;;;;;;25.47;78.01;100688.00;5070550;28;20178;-64
2023/08/20 05:50:24;;;;;;;6.97;6.17;;;;;;;25.46;78.74;100681.41;5091174;28;21253;-64
2023/08/20 05:52:50;;;;;;;7.10;5.73;;;;;;;25.47;78.54;100679.31;5096438;28;20219;-64
2023/08/20 05:55:15;;;;;;;6.47;5.83;;;;;;;25.47;78.74;100676.44;5107368;28;20182;-64
2023/08/20 05:57:42;;;;;;;8.70;6.10;;;;;;;25.46;78.77;100681.41;5102138;28;20338;-63
2023/08/20 06:00:08;;;;;;;6.97;6.27;;;;;;;25.47;78.84;100688.00;5101956;28;20180;-63
2023/08/20 06:02:34;;;;;;;9.70;6.30;;;;;;;25.47;78.84;100690.88;5088747;28;20420;-64
2023/08/20 06:04:59;;;;;;;7.70;6.17;;;;;;;25.47;78.74;100691.72;5107350;28;20902;-64
2023/08/20 06:07:25;;;;;;;8.80;5.80;;;;;;;25.47;78.86;100697.50;5108273;28;20746;-65
2023/08/20 06:09:50;;;;;;;8.43;7.00;;;;;;;25.48;78.45;100692.56;5097113;28;20248;-65
2023/08/20 06:12:19;;;;;;;8.53;6.67;;;;;;;25.47;78.74;100688.84;5098514;28;20213;-64
2023/08/20 06:14:45;;;;;;;6.30;5.70;;;;;;;25.47;78.87;100696.69;5088900;28;20187;-65
2023/08/20 06:17:10;;;;;;;7.10;6.40;;;;;;;25.47;78.65;100690.88;5091291;28;20927;-65
2023/08/20 06:19:35;;;;;;;13.80;7.10;;;;;;;25.46;78.41;100695.88;5070493;28;20693;-63
2023/08/20 06:22:01;;;;;;;6.93;5.67;;;;;;;25.47;78.90;100685.94;5070554;28;20609;-64
2023/08/20 06:24:26;;;;;;;7.83;7.03;;;;;;;25.48;78.77;100701.25;5104630;28;20923;-64
2023/08/20 06:26:52;;;;;;;8.50;6.73;;;;;;;25.47;78.37;100694.63;5109312;28;20726;-65
2023/08/20 06:29:17;;;;;;;8.70;6.93;;;;;;;25.47;78.76;100700.41;5109305;28;20173;-65
2023/08/20 06:31:43;;;;;;;7.77;6.33;;;;;;;25.47;78.92;100697.50;5095739;28;20584;-64
2023/08/20 06:34:09;;;;;;;7.20;6.50;;;;;;;25.48;78.43;100710.72;5088757;28;20171;-64
2023/08/20 06:36:35;;;;;;;10.40;6.60;;;;;;;25.48;78.43;100713.59;5088547;28;20165;-64
2023/08/20 06:39:00;;;;;;;7.33;6.27;;;;;;;25.47;78.90;100709.06;5090810;28;20444;-63
2023/08/20 06:41:26;;;;;;;8.27;6.57;;;;;;;25.47;78.94;100714.84;5103835;28;20174;-64
2023/08/20 06:43:52;;;;;;;8.30;6.33;;;;;;;25.48;79.01;100709.91;5104441;28;20181;-63
2023/08/20 06:46:17;;;;;;;8.67;6.97;;;;;;;25.48;78.52;100709.91;5088188;28;20594;-64
2023/08/20 06:48:42;;;;;;;7.40;6.50;;;;;;;25.48;79.22;100709.91;5087483;28;20217;-64
2023/08/20 06:51:11;;;;;;;6.87;6.17;;;;;;;25.48;78.62;100728.06;5100520;28;20228;-64
2023/08/20 06:53:37;;;;;;;8.10;6.00;;;;;;;25.48;79.02;100728.06;5107554;28;20209;-64
2023/08/20 06:56:02;;;;;;;8.03;7.33;;;;;;;25.47;78.82;100723.53;5107329;28;20423;-64
2023/08/20 06:58:28;;;;;;;7.00;6.30;;;;;;;25.48;79.20;100724.38;5098444;28;20907;-64
2023/08/20 07:00:53;;;;;;;8.80;6.30;;;;;;;25.47;79.06;100726.41;5095178;28;20242;-63
2023/08/20 07:03:19;;;;;;;9.07;7.10;;;;;;;25.48;78.75;100727.25;5105106;28;20184;-64
2023/08/20 07:05:44;;;;;;;10.20;7.00;;;;;;;25.47;78.86;100725.59;5112773;28;20164;-64
2023/08/20 07:08:10;;;;;;;8.80;7.03;;;;;;;25.48;78.79;100727.25;5108045;28;20554;-64
2023/08/20 07:10:35;;;;;;;8.40;6.90;;;;;;;25.47;79.38;100716.91;5094086;28;20178;-64
2023/08/20 07:13:01;;;;;;;10.70;6.97;;;;;;;25.47;79.29;100717.75;5112592;28;20189;-64
2023/08/20 07:15:26;;;;;;;7.87;7.07;;;;;;;25.48;79.07;100715.69;5108700;28;20189;-64
2023/08/20 07:17:52;;;;;;;8.47;6.70;;;;;;;25.48;79.12;100727.25;5094401;28;20173;-64
2023/08/20 07:20:17;;;;;;;7.57;6.53;;;;;;;25.48;79.43;100733.84;5108311;28;20233;-63
2023/08/20 07:22:42;;;;;;;7.60;6.67;;;;;;;25.48;78.97;100728.06;5112181;28;20546;-64
2023/08/20 07:25:08;;;;;;;8.47;6.70;;;;;;;25.48;79.27;100733.84;5110000;28;20178;-64
2023/08/20 07:27:34;;;;;;;7.23;6.53;;;;;;;25.47;79.06;100729.31;5075538;28;20166;-64
2023/08/20 07:29:59;;;;;;;8.20;7.27;;;;;;;25.47;79.43;100742.94;5094335;28;20689;-63
2023/08/20 07:32:25;;;;;;;8.13;6.47;;;;;;;25.48;79.49;100733.84;5073673;28;20240;-64
2023/08/20 07:34:50;;;;;;;7.90;6.77;;;;;;;25.48;79.36;100738.81;5094079;28;20714;-64
2023/08/20 07:37:16;;;;;;;7.57;6.60;;;;;;;25.48;79.48;100742.53;5094775;28;20183;-64
2023/08/20 07:39:41;;;;;;;8.97;7.03;;;;;;;25.48;79.30;100742.53;5091138;28;20221;-64
2023/08/20 07:42:06;;;;;;;8.03;7.10;;;;;;;25.48;79.40;100730.97;5091648;28;20630;-64
2023/08/20 07:44:32;;;;;;;9.97;7.03;;;;;;;25.48;79.40;100736.75;5100443;28;20873;-64
2023/08/20 07:46:58;;;;;;;9.33;6.87;;;;;;;25.49;79.47;100741.28;5090690;28;20189;-64
2023/08/20 07:49:23;;;;;;;8.40;7.20;;;;;;;25.49;79.51;100735.50;5091226;28;20251;-64
2023/08/20 07:51:52;;;;;;;8.20;7.07;;;;;;;25.49;79.44;100741.28;5092269;28;20182;-64
2023/08/20 07:54:17;;;;;;;10.83;7.60;;;;;;;25.50;79.75;100736.31;5093251;28;20155;-64
2023/08/20 07:56:43;;;;;;;11.20;7.60;;;;;;;25.49;79.02;100738.38;5102878;28;20462;-64
2023/08/20 07:59:08;;;;;;;9.90;7.40;;;;;;;25.50;79.23;100742.94;5088591;28;20178;-64
2023/08/20 08:01:34;;;;;;;8.03;7.23;;;;;;;25.50;79.01;100742.94;5099995;28;20660;-64
2023/08/20 08:03:59;;;;;;;10.00;7.20;;;;;;;25.51;79.18;100744.59;5111459;28;20550;-63
2023/08/20 08:06:24;;;;;;;8.50;7.13;;;;;;;25.51;78.99;100747.47;5108733;28;20181;-64
2023/08/20 08:08:50;;;;;;;7.80;7.00;;;;;;;25.51;79.41;100743.75;5108577;28;20182;-64
2023/08/20 08:11:15;;;;;;;9.90;7.77;;;;;;;25.51;78.99;100747.47;5110439;28;20178;-64
2023/08/20 08:13:41;;;;;;;9.80;7.50;;;;;;;25.52;79.30;100742.50;5092179;28;20190;-63
2023/08/20 08:16:06;;;;;;;9.13;8.20;;;;;;;25.52;79.27;100739.63;5102683;28;20170;-63
2023/08/20 08:18:32;;;;;;;11.47;8.10;;;;;;;25.51;79.46;100741.69;5090401;28;20231;-64
2023/08/20 08:20:57;;;;;;;10.90;7.70;;;;;;;25.52;79.40;100746.22;5090826;28;20677;-64
2023/08/20 08:23:22;;;;;;;9.33;8.03;;;;;;;25.52;79.32;100746.22;5093459;28;20668;-64
2023/08/20 08:25:49;;;;;;;9.10;7.70;;;;;;;25.52;79.90;100752.03;5106805;28;20568;-64
2023/08/20 08:28:15;;;;;;;12.17;8.03;;;;;;;25.52;79.79;100754.91;5110637;28;20415;-64
2023/08/20 08:30:40;;;;;;;10.23;7.30;;;;;;;25.53;79.49;100759.44;5107387;28;20185;-64
2023/08/20 08:33:06;;;;;;;8.93;7.30;;;;;;;25.53;80.12;100753.66;5108127;28;20926;-64
2023/08/20 08:35:31;;;;;;;8.70;7.73;;;;;;;25.54;80.10;100763.19;5109756;28;20166;-64
2023/08/20 08:37:57;;;;;;;10.00;7.93;;;;;;;25.52;80.14;100754.91;5104708;28;20193;-63
2023/08/20 08:40:24;;;;;;;8.97;7.63;;;;;;;25.54;80.05;100768.97;5108628;28;20177;-63
2023/08/20 08:42:50;;;;;;;11.90;8.20;;;;;;;25.54;79.73;100766.88;5090869;28;20158;-64
2023/08/20 08:45:20;;;;;;;8.47;7.60;;;;;;;25.54;79.68;100758.19;5100394;28;21075;-64
2023/08/20 08:47:45;;;;;;;10.00;8.10;;;;;;;25.54;80.17;100763.97;5054139;28;20425;-64
2023/08/20 08:50:10;;;;;;;10.90;9.53;;;;;;;25.54;79.68;100761.09;5070218;28;20452;-64
2023/08/20 08:52:36;;;;;;;11.13;8.00;;;;;;;25.53;80.00;100759.44;5070381;28;20206;-64
2023/08/20 08:55:02;;;;;;;9.53;8.40;;;;;;;25.54;80.44;100754.50;5080812;28;20178;-64
2023/08/20 08:57:27;;;;;;;10.97;7.97;;;;;;;25.53;79.81;100759.44;5075020;28;20269;-64
2023/08/20 08:59:53;;;;;;;10.40;7.83;;;;;;;25.54;79.89;100768.97;5096008;28;20236;-64
2023/08/20 09:02:19;;;;;;;11.20;8.80;;;;;;;25.53;80.30;100768.13;5089406;28;20227;-63
2023/08/20 09:04:45;;;;;;;9.97;7.70;;;;;;;25.53;79.99;100770.22;5073820;28;20186;-64
2023/08/20 09:07:14;;;;;;;10.70;8.50;;;;;;;25.53;79.84;100765.22;5095699;28;20556;-64
2023/08/20 09:09:43;;;;;;;13.30;8.23;;;;;;;25.53;79.99;100768.13;5089887;28;20170;-65
2023/08/20 09:12:19;;;;;;;12.23;8.93;;;;;;;25.53;80.00;100762.34;5105633;28;20459;-63
2023/08/20 09:14:49;;;;;;;11.20;8.30;;;;;;;25.55;79.72;100768.53;5088897;28;20420;-64
2023/08/20 09:17:15;;;;;;;11.97;7.70;;;;;;;25.55;80.41;100756.97;5072903;28;20462;-64
2023/08/20 09:19:41;;;;;;;10.87;8.27;;;;;;;25.55;80.15;100759.88;5108535;28;20467;-63
2023/08/20 09:22:07;;;;;;;9.70;8.63;;;;;;;25.55;79.79;100756.97;5086850;28;20532;-64
2023/08/20 09:24:41;;;;;;;12.27;7.73;;;;;;;25.55;79.76;100750.34;5108808;28;20472;-64
2023/08/20 09:27:06;;;;;;;9.90;8.90;;;;;;;25.57;80.08;100750.75;5109226;28;20204;-64
2023/08/20 09:29:33;;;;;;;11.20;9.20;;;;;;;25.56;79.77;100755.72;5109199;28;20926;-63
2023/08/20 09:32:02;;;;;;;9.40;8.40;;;;;;;25.57;80.09;100754.47;5078131;28;20282;-63
2023/08/20 09:34:38;;;;;;;10.63;9.23;;;;;;;25.57;80.17;100753.66;5088629;28;20482;-64
2023/08/20 09:37:04;;;;;;;11.20;7.90;;;;;;;25.57;80.17;100750.75;5092192;27;21357;-64
2023/08/20 09:39:29;;;;;;;8.90;7.83;;;;;;;25.57;79.85;100751.59;5080072;28;20427;-63
2023/08/20 09:41:55;;;;;;;10.07;8.43;;;;;;;25.58;80.12;100750.34;5089283;28;20181;-62
2023/08/20 09:44:20;;;;;;;9.43;8.40;;;;;;;25.63;79.90;100760.63;5087974;28;20808;-61
2023/08/20 09:46:45;;;;;;;13.23;8.43;;;;;;;25.66;80.74;100762.72;5071358;28;20684;-62
2023/08/20 09:49:11;;;;;;;15.07;8.80;;;;;;;25.68;80.85;100761.03;5087591;28;20589;-62
2023/08/20 09:51:36;;;;;;;11.50;8.73;;;;;;;25.69;81.23;100754.00;5089601;28;20199;-62
2023/08/20 09:54:21;;;;;;;23.17;8.40;;;;;;;25.70;81.68;100751.97;5079382;28;20217;-62
2023/08/20 09:56:46;;;;;;;15.27;9.20;;;;;;;25.68;81.91;100749.47;5076190;28;20181;-63
2023/08/20 09:59:12;;;;;;;9.93;7.97;;;;;;;25.68;81.71;100755.25;5090473;28;20416;-62
2023/08/20 10:01:37;;;;;;;23.30;10.33;;;;;;;25.70;81.44;100752.75;5092807;28;20182;-63
2023/08/20 10:04:03;;;;;;;10.27;9.17;;;;;;;25.72;81.79;100749.47;5090733;28;20190;-63
2023/08/20 10:06:29;;;;;;;16.10;9.40;;;;;;;25.82;81.55;100743.63;5069875;28;20257;-63
2023/08/20 10:08:54;;;;;;;15.40;11.37;;;;;;;25.80;81.82;100740.31;5082293;28;20664;-64
2023/08/20 10:11:20;;;;;;;12.10;9.73;;;;;;;25.76;81.96;100736.66;5087217;28;20421;-63
2023/08/20 10:13:45;;;;;;;12.53;10.97;;;;;;;25.73;82.15;100731.69;5089376;28;20293;-63
2023/08/20 10:16:12;;;;;;;11.90;10.10;;;;;;;25.73;82.13;100739.53;5093711;28;20680;-63
2023/08/20 10:18:37;;;;;;;10.87;8.70;;;;;;;25.71;82.48;100737.09;5095875;28;20224;-63
2023/08/20 10:21:03;;;;;;;12.37;9.50;;;;;;;25.70;82.54;100737.50;5105892;27;20454;-63
2023/08/20 10:23:28;;;;;;;13.23;9.17;;;;;;;25.70;83.08;100734.59;5083272;28;20185;-62
2023/08/20 10:25:53;;;;;;;11.50;9.77;;;;;;;25.70;82.73;100741.19;5104473;28;20173;-62
2023/08/20 10:28:26;;;;;;;17.17;9.97;;;;;;;25.69;82.48;100738.75;5089032;28;20161;-63
2023/08/20 10:31:11;;;;;;;12.47;8.57;;;;;;;25.70;82.62;100737.50;5107494;28;20779;-61
2023/08/20 10:33:38;;;;;;;11.43;9.33;;;;;;;25.68;82.66;100732.13;5071324;28;20522;-63
2023/08/20 10:36:08;;;;;;;11.83;9.53;;;;;;;25.69;83.06;100727.97;5085715;28;20904;-63
2023/08/20 10:38:37;;;;;;;10.40;9.30;;;;;;;25.69;82.90;100727.97;5070900;28;21086;-63
2023/08/20 10:41:07;;;;;;;12.20;8.93;;;;;;;25.69;82.46;100735.84;5086192;28;20422;-63
2023/08/20 10:43:33;;;;;;;10.20;9.00;;;;;;;25.69;82.77;100733.75;5068630;28;20471;-62
2023/08/20 10:46:21;;;;;;;11.77;8.93;;;;;;;25.69;82.84;100725.09;5090000;28;20455;-63
2023/08/20 10:48:51;;;;;;;14.63;9.57;;;;;;;25.68;82.91;100720.56;5087447;28;20202;-63
2023/08/20 10:51:17;;;;;;;11.97;8.87;;;;;;;25.69;82.15;100710.63;5090304;28;20440;-63
2023/08/20 10:54:05;;;;;;;11.20;8.07;;;;;;;25.69;82.53;100722.19;5088458;28;20463;-62
2023/08/20 10:56:55;;;;;;;10.83;9.30;;;;;;;25.69;81.99;100713.53;5093029;28;21009;-62
2023/08/20 10:59:21;;;;;;;12.50;9.40;;;;;;;25.69;82.76;100710.63;5089853;28;20497;-63
2023/08/20 11:01:52;;;;;;;9.60;8.37;;;;;;;25.69;82.16;100716.41;5087527;28;20409;-63
2023/08/20 11:04:19;;;;;;;12.70;9.33;;;;;;;25.69;82.48;100716.41;5087462;28;20863;-62
2023/08/20 11:06:44;;;;;;;9.47;8.27;;;;;;;25.71;82.21;100718.88;5091301;28;20518;-62
2023/08/20 11:09:10;;;;;;;14.57;9.50;;;;;;;25.69;81.75;100719.31;5107804;28;20753;-63
2023/08/20 11:11:38;;;;;;;12.30;8.50;;;;;;;25.70;82.39;100718.06;5087070;28;20181;-63
2023/08/20 11:14:06;;;;;;;14.70;9.40;;;;;;;25.69;82.11;100710.63;5128219;28;20197;-63
2023/08/20 11:16:31;;;;;;;9.37;8.37;;;;;;;25.70;82.34;100720.94;5122397;28;20435;-63
2023/08/20 11:18:57;;;;;;;9.73;8.73;;;;;;;25.70;81.95;100712.28;5087943;28;20428;-63
2023/08/20 11:21:22;;;;;;;13.07;8.73;;;;;;;25.70;81.86;100715.16;5095744;28;20705;-62